KBGE/BGE METAR and TAF weather

Enter ICAO airport designator
Station Type Date Time Source
KBGE METAR 2018/12/13 15:15 UTC NOAA

KBGE 131515Z AUTO 10003KT 10SM 11/06 A3019 RMK AO2 PWINO


Station Type Date Time Source
KBGE Decoded METAR 2018/12/13 15:15 UTC NOAA

Bainbridge, Decatur County Industrial Air Park Airport, GA, United States (KBGE) 30-58N 084-38W
Dec 13, 2018 - 10:15 AM EST / 2018.12.13 1515 UTC
Wind: from the E (100 degrees) at 3 MPH (3 KT):0
Visibility: 10 mile(s):0
Temperature: 51 F (11 C)
Dew Point: 42 F (6 C)
Relative Humidity: 71%
Pressure (altimeter): 30.19 in. Hg (1022 hPa)
ob: KBGE 131515Z AUTO 10003KT 10SM 11/06 A3019 RMK AO2 PWINO
cycle: 15

Station Type Date Time Source
KBGE TAF UTC NOAA

Error!


Example: see airport list